Time;durP1;ratioP1;P1;durP2;ratioP2;P2;SDS_P1;SDS_P2;PMS_P1;PMS_P2;Temp;Humidity;BMP_temperature;BMP_pressure;BME280_temperature;BME280_humidity;BME280_pressure;Samples;Min_cycle;Max_cycle;Signal;HPM_P1;HPM_P2
2022/08/28 00:01:45;;;;;;;5.95;0.47;;;;;;;14.25;43.33;101836.22;5003322;28;20081;-78
2022/08/28 00:04:11;;;;;;;8.30;0.57;;;;;;;14.37;43.13;101833.13;5000809;28;20038;-76
2022/08/28 00:06:36;;;;;;;5.25;0.70;;;;;;;14.26;43.45;101832.69;5001114;28;20138;-79
2022/08/28 00:09:03;;;;;;;5.00;0.50;;;;;;;14.27;43.42;101821.25;5002183;28;20119;-77
2022/08/28 00:11:29;;;;;;;10.70;0.90;;;;;;;14.11;43.75;101828.91;5001605;28;20041;-78
2022/08/28 00:13:54;;;;;;;6.28;0.52;;;;;;;14.06;43.72;101830.88;5004433;28;20045;-77
2022/08/28 00:16:20;;;;;;;7.70;1.08;;;;;;;14.15;43.47;101835.75;4989452;28;20029;-76
2022/08/28 00:18:45;;;;;;;10.43;0.93;;;;;;;14.30;43.25;101829.88;4988385;28;20068;-77
2022/08/28 00:21:11;;;;;;;4.80;0.30;;;;;;;14.36;43.01;101837.50;5004409;28;20497;-78
2022/08/28 00:23:36;;;;;;;6.72;0.38;;;;;;;14.35;42.91;101838.44;5016658;28;20056;-79
2022/08/28 00:26:02;;;;;;;6.47;0.40;;;;;;;14.21;43.32;101830.25;5007426;28;20026;-79
2022/08/28 00:28:28;;;;;;;6.18;0.50;;;;;;;14.18;43.76;101834.78;4985875;28;20038;-78
2022/08/28 00:30:57;;;;;;;10.48;0.80;;;;;;;14.12;43.79;101833.22;4990055;28;20077;-77
2022/08/28 00:33:26;;;;;;;5.78;1.48;;;;;;;14.10;43.71;101840.34;4983182;28;20057;-78
2022/08/28 00:35:53;;;;;;;6.90;0.32;;;;;;;14.07;43.95;101835.19;4993473;28;20030;-78
2022/08/28 00:38:20;;;;;;;2.60;0.77;;;;;;;14.07;44.06;101832.56;4997690;28;20041;-78
2022/08/28 00:40:49;;;;;;;5.32;0.60;;;;;;;14.14;43.79;101840.16;4985103;28;20555;-77
2022/08/28 00:43:42;;;;;;;9.93;0.90;;;;;;;14.08;43.98;101831.66;5004505;28;20030;-78
2022/08/28 00:46:15;;;;;;;7.28;0.32;;;;;;;14.41;43.41;101826.84;5001356;28;20042;-78
2022/08/28 00:48:41;;;;;;;9.23;0.80;;;;;;;14.55;43.05;101835.00;5009720;28;20048;-78
2022/08/28 00:53:53;;;;;;;8.13;0.93;;;;;;;14.51;43.15;101828.16;5002013;28;20035;-77
2022/08/28 00:56:19;;;;;;;6.18;0.50;;;;;;;14.49;43.08;101829.16;5002294;28;20030;-78
2022/08/28 00:58:48;;;;;;;6.85;1.05;;;;;;;14.39;43.04;101830.41;5001338;28;20061;-77
2022/08/28 01:01:13;;;;;;;7.55;0.73;;;;;;;14.28;43.21;101831.72;5007839;28;20041;-78
2022/08/28 01:03:40;;;;;;;7.75;0.80;;;;;;;14.21;42.97;101824.13;4998345;28;20080;-78
2022/08/28 01:06:07;;;;;;;7.57;0.73;;;;;;;14.24;42.94;101830.13;5020097;28;20034;-77
2022/08/28 01:08:34;;;;;;;10.07;0.80;;;;;;;14.27;42.82;101823.88;4986698;28;20042;-78
2022/08/28 01:11:02;;;;;;;8.05;0.77;;;;;;;13.98;43.31;101823.25;4992186;28;20033;-78
2022/08/28 01:13:29;;;;;;;8.77;0.60;;;;;;;14.05;43.24;101816.84;5001397;28;20080;-78
2022/08/28 01:15:56;;;;;;;6.57;0.75;;;;;;;14.07;43.04;101814.16;5019767;28;20033;-79
2022/08/28 01:18:24;;;;;;;7.00;0.70;;;;;;;14.07;43.13;101814.16;4985162;28;20057;-77
2022/08/28 01:21:17;;;;;;;8.30;0.43;;;;;;;14.07;43.29;101819.41;5006220;28;20071;-78
2022/08/28 01:24:00;;;;;;;4.88;0.68;;;;;;;14.17;43.57;101809.41;4998415;28;20120;-78
2022/08/28 01:26:27;;;;;;;10.23;0.85;;;;;;;14.09;43.61;101814.97;4981454;28;20064;-77
2022/08/28 01:28:54;;;;;;;3.85;0.85;;;;;;;14.22;43.68;101810.91;4989211;28;20456;-77
2022/08/28 01:31:20;;;;;;;13.60;0.90;;;;;;;14.21;43.77;101824.13;5023389;28;20034;-78
2022/08/28 01:33:47;;;;;;;3.95;0.50;;;;;;;14.11;44.19;101815.75;5010088;28;20408;-77
2022/08/28 01:36:13;;;;;;;5.10;0.65;;;;;;;14.20;43.72;101814.53;5001839;28;20069;-78
2022/08/28 01:38:41;;;;;;;4.93;0.65;;;;;;;14.05;43.93;101816.00;5005035;28;20455;-79
2022/08/28 01:41:08;;;;;;;7.75;0.50;;;;;;;13.99;44.29;101816.25;4982123;28;20033;-77
2022/08/28 01:43:34;;;;;;;7.15;0.80;;;;;;;14.00;44.00;101833.72;5001238;28;20519;-79
2022/08/28 01:46:03;;;;;;;4.93;0.60;;;;;;;13.80;43.37;101816.09;5009981;28;20197;-78
2022/08/28 01:48:32;;;;;;;3.40;0.68;;;;;;;13.94;43.00;101824.28;5003391;28;20040;-77
2022/08/28 01:50:58;;;;;;;6.80;0.88;;;;;;;13.94;42.75;101817.28;5005446;28;20030;-78
2022/08/28 01:53:26;;;;;;;7.25;0.70;;;;;;;13.93;42.69;101822.59;5010069;28;20303;-78
2022/08/28 01:55:54;;;;;;;6.15;0.43;;;;;;;13.97;42.49;101816.31;5011110;28;20057;-77
2022/08/28 01:58:21;;;;;;;4.63;0.70;;;;;;;13.93;42.72;101819.97;4992856;28;20065;-78
2022/08/28 02:00:47;;;;;;;7.50;0.68;;;;;;;13.92;42.83;101813.88;4987543;28;20021;-78
2022/08/28 02:03:13;;;;;;;4.03;0.95;;;;;;;14.02;42.75;101814.34;4990047;28;20052;-78
2022/08/28 02:05:39;;;;;;;10.23;1.38;;;;;;;14.01;43.22;101811.78;5007382;28;20468;-78
2022/08/28 02:08:05;;;;;;;3.75;0.60;;;;;;;13.87;44.00;101815.78;4984313;28;20037;-78
2022/08/28 02:10:34;;;;;;;3.47;0.50;;;;;;;13.84;43.85;101810.69;4993871;28;20029;-78
2022/08/28 02:13:00;;;;;;;8.65;0.80;;;;;;;13.96;43.91;101813.72;4964152;28;20048;-76
2022/08/28 02:15:27;;;;;;;6.05;1.58;;;;;;;13.98;43.72;101811.91;4987766;28;20518;-77
2022/08/28 02:17:53;;;;;;;3.95;0.43;;;;;;;13.90;44.19;101815.69;5004072;28;20117;-77
2022/08/28 02:20:18;;;;;;;9.80;0.90;;;;;;;13.89;44.16;101819.22;5007887;28;20117;-78
2022/08/28 02:22:44;;;;;;;6.72;0.75;;;;;;;13.70;44.67;101826.13;4987483;28;20038;-77
2022/08/28 02:25:10;;;;;;;10.98;0.85;;;;;;;13.76;44.74;101820.63;4985258;28;20714;-78
2022/08/28 02:27:37;;;;;;;6.93;0.90;;;;;;;13.77;44.69;101824.97;5001220;28;20051;-78
2022/08/28 02:30:04;;;;;;;3.85;0.50;;;;;;;13.81;44.20;101828.31;4982507;28;20041;-77
2022/08/28 02:32:29;;;;;;;7.65;0.73;;;;;;;13.81;44.04;101820.44;4976887;28;20108;-77
2022/08/28 02:34:55;;;;;;;12.95;0.80;;;;;;;13.76;43.92;101814.50;4984626;28;20041;-77
2022/08/28 02:37:23;;;;;;;5.45;0.30;;;;;;;13.74;43.64;101819.81;5023941;28;20488;-77
2022/08/28 02:39:50;;;;;;;3.50;0.75;;;;;;;13.61;43.55;101826.47;5010948;28;20539;-78
2022/08/28 02:42:16;;;;;;;4.72;1.00;;;;;;;13.60;43.63;101824.75;4997404;28;20042;-77
2022/08/28 02:44:41;;;;;;;2.30;0.20;;;;;;;13.70;43.20;101819.09;4995299;28;20032;-77
2022/08/28 02:47:08;;;;;;;5.03;0.82;;;;;;;13.68;43.27;101820.06;4987719;28;21004;-77
2022/08/28 02:49:33;;;;;;;7.82;0.50;;;;;;;13.57;43.47;101820.47;4988464;28;20089;-77
2022/08/28 02:51:59;;;;;;;8.82;0.47;;;;;;;13.61;43.50;101826.47;4985757;28;20705;-78
2022/08/28 02:54:25;;;;;;;9.05;1.15;;;;;;;13.60;43.30;101822.97;4988080;28;20052;-77
2022/08/28 02:56:51;;;;;;;5.35;0.60;;;;;;;13.60;43.44;101822.13;4989664;28;20034;-78
2022/08/28 02:59:17;;;;;;;5.53;0.50;;;;;;;13.58;43.53;101826.56;5003293;28;20029;-78
2022/08/28 03:01:43;;;;;;;10.30;1.25;;;;;;;13.62;43.61;101825.56;5015538;28;20034;-78
2022/08/28 03:04:09;;;;;;;5.63;0.47;;;;;;;13.58;43.52;101819.53;5001201;28;20030;-76
2022/08/28 03:06:34;;;;;;;8.65;0.70;;;;;;;13.56;43.73;101823.13;5002917;28;20030;-77
2022/08/28 03:09:00;;;;;;;8.18;0.68;;;;;;;13.57;43.96;101824.88;5004943;28;20088;-78
2022/08/28 03:11:26;;;;;;;7.88;0.60;;;;;;;13.56;43.80;101825.75;4991136;28;20434;-78
2022/08/28 03:13:52;;;;;;;5.38;0.50;;;;;;;13.58;44.09;101822.16;4999613;28;20064;-78
2022/08/28 03:16:18;;;;;;;3.90;1.00;;;;;;;13.57;43.99;101820.47;5003597;28;20856;-76
2022/08/28 03:18:44;;;;;;;6.28;0.50;;;;;;;13.61;44.09;101824.69;5011848;28;20552;-78
2022/08/28 03:21:10;;;;;;;3.92;0.50;;;;;;;13.64;44.06;101823.72;4989248;28;20816;-77
2022/08/28 03:23:36;;;;;;;3.13;0.73;;;;;;;13.60;44.22;101827.38;4986726;28;20029;-78
2022/08/28 03:26:24;;;;;;;10.07;0.68;;;;;;;13.69;44.07;101821.78;4996295;28;20038;-78
2022/08/28 03:28:52;;;;;;;1.77;0.52;;;;;;;13.65;44.38;101825.41;4976503;28;20033;-78
2022/08/28 03:31:20;;;;;;;8.30;1.05;;;;;;;13.61;44.56;101827.31;4989102;28;20084;-77
2022/08/28 03:33:46;;;;;;;9.32;0.90;;;;;;;13.50;44.66;101827.69;4994766;28;20044;-77
2022/08/28 03:36:15;;;;;;;3.78;0.70;;;;;;;13.50;44.81;101830.31;4987676;28;20113;-77
2022/08/28 03:38:41;;;;;;;5.22;0.90;;;;;;;13.35;45.25;101833.50;4986381;28;20131;-77
2022/08/28 03:41:12;;;;;;;2.00;0.60;;;;;;;13.49;44.64;101831.22;4981835;28;20069;-76
2022/08/28 03:43:37;;;;;;;4.83;0.80;;;;;;;13.57;44.40;101832.75;5003592;28;20431;-75
2022/08/28 03:46:05;;;;;;;4.50;0.82;;;;;;;13.56;44.34;101831.00;4985811;28;20095;-77
2022/08/28 03:48:35;;;;;;;3.33;0.50;;;;;;;13.58;44.13;101837.94;5016528;28;20339;-77
2022/08/28 03:51:01;;;;;;;6.22;0.50;;;;;;;13.64;43.94;101835.09;4997393;28;20404;-77
2022/08/28 03:53:28;;;;;;;3.67;0.50;;;;;;;13.62;44.03;101830.81;4982750;28;20041;-78
2022/08/28 03:55:55;;;;;;;4.25;0.57;;;;;;;13.57;44.37;101830.13;4996473;28;20046;-76
2022/08/28 03:58:22;;;;;;;4.70;0.40;;;;;;;13.55;44.44;101830.16;4988404;28;20580;-78
2022/08/28 04:00:49;;;;;;;3.17;0.93;;;;;;;13.53;44.30;101831.97;5003045;28;20121;-78
2022/08/28 04:03:15;;;;;;;4.72;0.50;;;;;;;13.50;44.43;101840.81;4997807;28;20139;-78
2022/08/28 04:05:42;;;;;;;6.82;1.35;;;;;;;13.33;45.00;101835.31;5002619;28;20037;-77
2022/08/28 04:08:08;;;;;;;5.93;0.73;;;;;;;13.48;44.48;101844.44;4997761;28;20116;-76
2022/08/28 04:10:35;;;;;;;8.10;0.93;;;;;;;13.47;44.53;101842.69;5005253;28;20118;-76
2022/08/28 04:13:02;;;;;;;14.20;1.05;;;;;;;13.46;44.37;101841.84;4989046;28;20049;-78
2022/08/28 04:15:28;;;;;;;6.40;0.60;;;;;;;13.58;43.99;101844.97;5002914;28;20044;-77
2022/08/28 04:17:54;;;;;;;2.90;0.70;;;;;;;13.49;43.81;101844.34;4999722;28;20772;-77
2022/08/28 04:20:20;;;;;;;5.07;1.20;;;;;;;13.27;44.36;101846.94;4982085;28;20034;-77
2022/08/28 04:22:48;;;;;;;3.10;1.35;;;;;;;13.30;43.85;101845.94;5004060;28;20030;-77
2022/08/28 04:25:14;;;;;;;7.30;0.60;;;;;;;13.25;43.70;101842.63;5004335;28;20034;-79
2022/08/28 04:27:41;;;;;;;4.50;0.88;;;;;;;13.16;43.96;101842.94;4984294;28;20131;-77
2022/08/28 04:30:08;;;;;;;3.38;0.82;;;;;;;13.20;43.90;101840.16;4985356;28;20729;-79
2022/08/28 04:32:35;;;;;;;1.75;0.57;;;;;;;12.99;44.12;101835.69;4999519;28;20053;-76
2022/08/28 04:35:03;;;;;;;10.60;0.75;;;;;;;13.07;43.83;101845.00;4997899;28;22178;-77
2022/08/28 04:37:30;;;;;;;5.07;0.80;;;;;;;13.01;44.02;101845.22;4999798;28;20042;-76
2022/08/28 04:39:56;;;;;;;5.25;0.68;;;;;;;12.91;44.06;101846.44;4984145;28;20519;-77
2022/08/28 04:42:21;;;;;;;10.13;0.93;;;;;;;12.81;44.59;101845.91;5000828;28;20038;-78
2022/08/28 04:44:47;;;;;;;5.60;0.63;;;;;;;12.90;44.18;101848.19;4998295;28;20029;-79
2022/08/28 04:47:12;;;;;;;7.40;0.60;;;;;;;13.01;43.95;101850.47;4998534;28;20405;-78
2022/08/28 04:49:39;;;;;;;4.47;0.43;;;;;;;13.04;43.82;101849.50;5001182;28;20036;-76
2022/08/28 04:52:05;;;;;;;11.50;0.98;;;;;;;13.01;44.11;101854.88;4993379;28;20037;-78
2022/08/28 04:54:33;;;;;;;5.20;1.02;;;;;;;13.03;43.91;101853.03;4988179;28;20692;-76
2022/08/28 04:57:00;;;;;;;1.20;0.35;;;;;;;13.03;44.33;101861.75;4988030;28;20049;-77
2022/08/28 04:59:27;;;;;;;8.07;1.15;;;;;;;13.10;44.18;101860.63;5000982;28;20140;-76
2022/08/28 05:01:53;;;;;;;5.28;0.40;;;;;;;13.09;44.45;101858.94;4998450;28;20038;-80
2022/08/28 05:04:19;;;;;;;8.10;1.15;;;;;;;13.23;44.30;101860.22;5001149;28;20560;-76
2022/08/28 05:06:45;;;;;;;6.07;0.75;;;;;;;13.34;44.40;101858.06;4985221;28;20045;-78
2022/08/28 05:09:16;;;;;;;5.63;0.40;;;;;;;13.34;44.40;101858.06;4983644;28;20120;-77
2022/08/28 05:11:43;;;;;;;4.95;0.43;;;;;;;13.45;44.13;101861.16;4997728;28;20030;-77
2022/08/28 05:14:08;;;;;;;3.92;1.15;;;;;;;13.65;43.81;101864.81;4976868;28;20423;-77
2022/08/28 05:16:46;;;;;;;6.60;0.65;;;;;;;13.79;43.35;101859.94;5002158;28;20040;-79
2022/08/28 05:19:13;;;;;;;6.20;0.73;;;;;;;13.77;43.36;101861.75;4981978;28;20037;-79
2022/08/28 05:21:39;;;;;;;6.88;1.83;;;;;;;13.75;43.44;101863.56;4999261;28;20630;-77
2022/08/28 05:24:05;;;;;;;6.38;0.57;;;;;;;13.70;43.19;101858.50;4983395;28;20080;-79
2022/08/28 05:26:32;;;;;;;5.00;0.80;;;;;;;13.78;43.00;101855.56;5007099;28;20056;-78
2022/08/28 05:28:59;;;;;;;4.90;0.75;;;;;;;14.11;42.49;101860.44;4989830;28;20391;-78
2022/08/28 05:31:25;;;;;;;4.57;0.70;;;;;;;14.14;42.49;101855.94;4990901;28;20045;-78
2022/08/28 05:33:51;;;;;;;9.40;1.77;;;;;;;15.20;40.00;101855.94;4982671;28;20202;-78
2022/08/28 05:36:18;;;;;;;6.00;0.88;;;;;;;17.27;36.88;101855.72;4984818;28;20125;-77
2022/08/28 05:38:45;;;;;;;8.15;0.82;;;;;;;18.40;32.79;101861.00;4984717;28;20045;-78
2022/08/28 05:41:10;;;;;;;3.75;0.70;;;;;;;19.45;30.65;101860.91;5006834;28;20179;-78
2022/08/28 05:43:36;;;;;;;2.55;0.40;;;;;;;20.88;28.35;101857.81;4999377;28;20042;-78
2022/08/28 05:46:08;;;;;;;2.92;0.38;;;;;;;21.70;27.69;101860.13;4974588;28;20130;-79
2022/08/28 05:48:36;;;;;;;1.85;0.50;;;;;;;21.97;26.56;101852.78;5003839;28;20428;-78
2022/08/28 05:51:10;;;;;;;3.65;0.55;;;;;;;22.00;26.72;101851.72;4986857;28;20079;-78
2022/08/28 05:53:40;;;;;;;2.92;0.38;;;;;;;21.44;27.56;101860.13;4995840;28;20046;-78
2022/08/28 05:56:11;;;;;;;3.15;0.47;;;;;;;21.76;26.70;101855.22;4997379;28;20029;-78
2022/08/28 05:58:39;;;;;;;4.05;0.35;;;;;;;22.15;26.88;101850.63;4965964;28;20447;-78
2022/08/28 06:01:15;;;;;;;5.40;0.90;;;;;;;22.78;25.64;101858.38;5003301;28;20024;-78
2022/08/28 06:03:43;;;;;;;5.22;0.80;;;;;;;22.77;25.50;101859.34;5004509;28;20108;-78
2022/08/28 06:06:10;;;;;;;4.47;0.40;;;;;;;22.70;25.34;101858.97;5004262;28;20014;-77
2022/08/28 06:08:37;;;;;;;0.80;0.30;;;;;;;23.53;24.41;101852.50;4994527;28;20893;-77
2022/08/28 06:11:04;;;;;;;2.70;0.60;;;;;;;24.21;24.26;101857.69;4981570;28;20037;-77
2022/08/28 06:13:30;;;;;;;0.90;0.30;;;;;;;24.55;23.30;101861.09;4988010;28;20046;-79
2022/08/28 06:15:56;;;;;;;5.22;0.40;;;;;;;23.59;24.71;101856.50;5007106;28;20033;-78
2022/08/28 06:18:23;;;;;;;3.97;0.60;;;;;;;24.35;23.77;101867.25;5003589;28;20917;-76
2022/08/28 06:20:50;;;;;;;7.88;0.90;;;;;;;25.12;23.41;101866.94;5003567;28;20091;-77
2022/08/28 06:23:18;;;;;;;4.88;0.57;;;;;;;24.82;23.35;101863.22;5008424;28;20030;-78
2022/08/28 06:25:47;;;;;;;6.05;0.50;;;;;;;26.02;23.12;101865.22;5001563;28;20038;-76
2022/08/28 06:28:19;;;;;;;3.63;1.00;;;;;;;26.98;21.48;101866.16;4991541;28;20058;-77
2022/08/28 06:30:45;;;;;;;3.63;0.60;;;;;;;26.20;22.54;101857.38;4993864;28;20034;-79
2022/08/28 06:33:12;;;;;;;8.13;0.90;;;;;;;21.73;27.69;101865.22;5001757;28;20029;-79
2022/08/28 06:35:43;;;;;;;3.75;0.50;;;;;;;19.11;32.46;101875.41;5013961;28;20623;-78
2022/08/28 06:38:09;;;;;;;10.87;0.60;;;;;;;17.53;35.54;101878.13;5005549;28;20639;-79
2022/08/28 06:40:43;;;;;;;8.95;0.47;;;;;;;17.12;37.00;101888.22;5007206;28;20080;-78
2022/08/28 06:43:09;;;;;;;5.57;0.57;;;;;;;18.12;35.48;101883.72;4982657;28;20401;-78
2022/08/28 06:45:39;;;;;;;3.53;0.70;;;;;;;21.21;30.36;101885.69;5011632;28;20030;-77
2022/08/28 06:48:06;;;;;;;6.05;0.68;;;;;;;21.93;29.44;101877.09;4983125;28;20606;-76
2022/08/28 06:50:32;;;;;;;4.65;0.60;;;;;;;20.15;31.66;101887.47;5004838;28;20045;-76
2022/08/28 06:52:58;;;;;;;1.98;0.30;;;;;;;18.89;33.72;101881.97;5015266;28;20046;-79
2022/08/28 06:55:24;;;;;;;4.50;0.57;;;;;;;17.91;35.11;101888.38;4986981;28;20022;-79
2022/08/28 06:57:49;;;;;;;7.88;0.77;;;;;;;17.34;36.11;101898.50;4999487;28;20567;-77
2022/08/28 07:00:15;;;;;;;6.88;0.85;;;;;;;17.28;36.21;101889.09;4985411;28;20029;-76
2022/08/28 07:02:40;;;;;;;4.35;0.52;;;;;;;17.96;35.98;101890.78;4982406;28;20121;-78
2022/08/28 07:05:07;;;;;;;3.97;0.50;;;;;;;19.18;33.54;101885.53;4992894;28;20026;-79
2022/08/28 07:07:33;;;;;;;6.10;0.75;;;;;;;20.58;31.14;101889.13;5003911;28;20060;-78
2022/08/28 07:09:58;;;;;;;5.93;0.60;;;;;;;20.72;30.69;101887.22;4985936;28;21036;-78
2022/08/28 07:12:24;;;;;;;5.30;0.75;;;;;;;20.21;31.52;101888.88;4987063;28;20130;-78
2022/08/28 07:14:49;;;;;;;9.50;0.60;;;;;;;19.53;32.79;101898.41;5003533;28;20108;-77
2022/08/28 07:17:15;;;;;;;10.82;0.70;;;;;;;18.51;33.79;101897.44;4980498;28;20052;-78
2022/08/28 07:19:40;;;;;;;3.95;0.77;;;;;;;18.21;34.37;101892.97;4986549;28;20044;-78
2022/08/28 07:22:06;;;;;;;5.55;0.65;;;;;;;17.98;34.58;101900.38;5001703;28;20050;-78
2022/08/28 07:24:31;;;;;;;7.30;0.73;;;;;;;18.40;33.77;101903.34;5004407;28;20026;-78
2022/08/28 07:26:57;;;;;;;2.95;0.47;;;;;;;18.29;34.03;101903.94;4982037;28;20060;-77
2022/08/28 07:29:22;;;;;;;7.97;0.40;;;;;;;17.65;34.40;101913.63;4990290;28;20717;-78
2022/08/28 07:31:51;;;;;;;3.80;0.60;;;;;;;18.94;32.56;101909.03;5000584;28;20037;-78
2022/08/28 07:34:18;;;;;;;5.13;0.70;;;;;;;21.65;28.13;101905.69;5002161;28;20030;-77
2022/08/28 07:36:45;;;;;;;5.82;0.70;;;;;;;20.70;29.33;101914.84;4992671;28;20053;-78
2022/08/28 07:39:12;;;;;;;3.45;0.50;;;;;;;19.68;31.33;101923.13;5016076;28;20056;-78
2022/08/28 07:41:41;;;;;;;6.28;0.90;;;;;;;18.68;32.27;101913.22;4996116;28;21096;-79
2022/08/28 07:46:55;;;;;;;3.22;0.30;;;;;;;17.85;33.53;101923.13;5000465;28;20397;-77
2022/08/28 07:49:21;;;;;;;3.80;0.40;;;;;;;18.03;33.57;101919.47;5002099;28;20026;-77
2022/08/28 07:51:47;;;;;;;5.68;0.50;;;;;;;18.05;33.57;101912.31;5002388;28;20498;-79
2022/08/28 07:54:13;;;;;;;4.45;0.52;;;;;;;18.41;33.08;101926.25;4983990;28;20089;-78
2022/08/28 07:56:39;;;;;;;5.10;0.75;;;;;;;18.56;32.43;101919.19;4995370;28;20080;-78
2022/08/28 07:59:07;;;;;;;3.28;1.50;;;;;;;18.53;31.44;101933.47;4982972;28;20038;-76
2022/08/28 08:01:39;;;;;;;3.05;0.65;;;;;;;18.14;31.04;101929.47;4987058;28;20022;-77
2022/08/28 08:04:06;;;;;;;3.58;0.63;;;;;;;18.66;30.87;101938.91;5004982;28;20049;-78
2022/08/28 08:06:33;;;;;;;6.72;1.05;;;;;;;19.60;29.78;101934.25;4994838;28;20871;-77
2022/08/28 08:08:58;;;;;;;2.33;0.60;;;;;;;21.94;26.77;101932.88;4981102;28;20332;-78
2022/08/28 08:11:25;;;;;;;3.75;0.52;;;;;;;22.35;25.99;101947.66;4989131;28;20100;-77
2022/08/28 08:13:51;;;;;;;3.75;0.40;;;;;;;21.53;26.40;101944.66;4983096;28;20050;-77
2022/08/28 08:16:20;;;;;;;3.03;0.40;;;;;;;22.26;24.98;101943.00;5001263;28;20030;-77
2022/08/28 08:18:47;;;;;;;2.35;0.30;;;;;;;22.38;25.51;101952.78;4995822;28;20159;-77
2022/08/28 08:21:15;;;;;;;5.25;0.65;;;;;;;23.80;22.70;101952.66;5015873;28;20037;-80
2022/08/28 08:23:41;;;;;;;4.93;0.63;;;;;;;24.70;21.17;101957.81;4984302;28;20056;-77
2022/08/28 08:26:11;;;;;;;2.10;0.38;;;;;;;25.14;20.03;101952.41;5002005;28;20451;-77
2022/08/28 08:28:37;;;;;;;2.28;0.35;;;;;;;25.52;19.96;101948.25;5000958;28;20411;-77
2022/08/28 08:31:04;;;;;;;2.70;0.50;;;;;;;25.97;19.93;101953.19;4991597;28;20033;-77
2022/08/28 08:33:30;;;;;;;11.18;1.48;;;;;;;25.63;20.16;101948.16;4990413;28;20401;-79
2022/08/28 08:35:56;;;;;;;3.92;0.30;;;;;;;25.00;20.86;101951.75;4986886;28;20096;-78
2022/08/28 08:38:21;;;;;;;6.00;0.90;;;;;;;25.04;20.98;101963.88;4982243;28;20512;-77
2022/08/28 08:40:47;;;;;;;6.38;0.55;;;;;;;22.91;23.52;101964.91;4989572;28;20247;-79
2022/08/28 08:43:16;;;;;;;3.72;0.57;;;;;;;22.02;25.16;101969.56;5005412;28;20053;-79
2022/08/28 08:45:45;;;;;;;7.00;0.75;;;;;;;21.93;26.19;101963.09;4995120;28;20244;-78
2022/08/28 08:48:27;;;;;;;5.07;0.73;;;;;;;21.63;26.58;101962.63;4997177;28;20046;-78
2022/08/28 08:50:58;;;;;;;5.55;0.60;;;;;;;20.51;28.67;101969.19;5005613;28;20084;-77
2022/08/28 08:53:54;;;;;;;4.03;0.40;;;;;;;21.51;27.57;101956.34;4983390;28;20588;-78
2022/08/28 08:56:20;;;;;;;7.97;0.90;;;;;;;21.62;27.42;101959.09;4981569;28;20061;-77
2022/08/28 08:58:51;;;;;;;3.03;0.70;;;;;;;20.08;29.70;101968.38;4984608;28;20459;-78
2022/08/28 09:01:32;;;;;;;4.30;0.65;;;;;;;19.81;29.81;101966.53;4975886;28;20033;-78
2022/08/28 09:04:08;;;;;;;4.33;1.27;;;;;;;19.60;30.16;101968.72;4988067;28;20073;-78
2022/08/28 09:06:39;;;;;;;4.68;0.85;;;;;;;19.86;30.00;101974.19;5007121;28;20048;-78
2022/08/28 09:09:10;;;;;;;;;;;;;;;20.69;28.21;101958.31;4999721;28;21057;-79
2022/08/28 09:11:58;;;;;;;2.53;0.63;;;;;;;20.81;28.56;101967.25;4995452;28;20368;-77
2022/08/28 09:14:33;;;;;;;5.75;1.10;;;;;;;20.64;28.76;101965.72;4991808;28;20357;-79
2022/08/28 09:16:59;;;;;;;7.40;1.05;;;;;;;19.77;29.43;101970.34;4994723;28;20309;-79
2022/08/28 09:19:25;;;;;;;4.28;0.82;;;;;;;19.45;30.39;101978.41;5014816;28;20257;-77
2022/08/28 09:21:51;;;;;;;4.97;1.10;;;;;;;19.27;30.62;101972.41;4981906;28;20038;-79
2022/08/28 09:24:23;;;;;;;7.75;0.80;;;;;;;18.65;32.13;101972.50;4996414;28;20026;-79
2022/08/28 09:27:00;;;;;;;4.68;0.93;;;;;;;18.92;32.09;101978.94;5016666;28;20097;-78
2022/08/28 09:29:32;;;;;;;7.72;0.88;;;;;;;19.27;32.20;101979.53;4999693;28;20100;-76
2022/08/28 09:32:21;;;;;;;3.00;1.10;;;;;;;19.24;32.03;101985.88;4986613;28;20037;-78
2022/08/28 09:35:07;;;;;;;5.15;1.42;;;;;;;18.43;33.39;101985.22;5003801;28;20124;-79
2022/08/28 09:37:34;;;;;;;3.55;0.73;;;;;;;18.24;33.09;101986.25;5013332;28;20045;-77
2022/08/28 09:40:18;;;;;;;6.05;1.38;;;;;;;17.82;33.21;101997.31;5008061;28;20121;-77
2022/08/28 09:45:43;;;;;;;5.32;0.85;;;;;;;18.47;31.71;101992.91;5016085;28;20041;-77
2022/08/28 09:48:19;;;;;;;2.70;0.88;;;;;;;19.41;30.45;101984.00;4988958;28;20137;-77
2022/08/28 09:51:02;;;;;;;2.97;0.90;;;;;;;19.87;29.65;101991.84;5002840;28;20044;-78
2022/08/28 09:53:29;;;;;;;5.90;0.88;;;;;;;20.33;28.84;101988.97;5004820;28;20040;-78
2022/08/28 09:56:06;;;;;;;9.65;1.30;;;;;;;20.53;28.46;101985.88;5007235;28;20073;-78
2022/08/28 09:58:39;;;;;;;4.03;0.50;;;;;;;20.66;29.45;101974.44;5012939;28;20057;-79
2022/08/28 10:01:11;;;;;;;8.30;1.30;;;;;;;19.43;31.16;101979.44;4986676;28;20037;-77
2022/08/28 10:03:42;;;;;;;;;;;;;;;19.01;30.77;101987.22;5002261;28;20124;-77
2022/08/28 10:06:20;;;;;;;9.18;1.08;;;;;;;19.15;30.81;101974.97;5005329;28;19995;-79
2022/08/28 10:09:13;;;;;;;15.55;1.50;;;;;;;19.85;30.61;101977.81;4995174;28;20435;-77
2022/08/28 10:11:42;;;;;;;9.50;1.52;;;;;;;20.18;30.55;101980.13;5004042;28;20037;-77
2022/08/28 10:14:28;;;;;;;6.03;1.33;;;;;;;21.21;29.89;101975.25;4987021;28;20201;-78
2022/08/28 10:17:12;;;;;;;5.60;0.90;;;;;;;20.95;29.43;101985.81;5003737;28;20247;-79
2022/08/28 10:20:13;;;;;;;10.23;1.25;;;;;;;20.34;30.68;101990.66;5013883;28;20144;-77
2022/08/28 10:22:47;;;;;;;4.97;1.10;;;;;;;19.89;32.03;101995.25;4966174;28;20213;-76
2022/08/28 10:25:16;;;;;;;3.38;1.13;;;;;;;19.10;33.08;102001.75;4991894;28;20033;-78
2022/08/28 10:28:00;;;;;;;11.18;1.65;;;;;;;19.08;32.91;102000.97;4997573;28;20074;-78
2022/08/28 10:30:30;;;;;;;5.72;1.80;;;;;;;19.35;32.86;101993.19;4975760;28;20030;-78
2022/08/28 10:33:01;;;;;;;11.65;2.28;;;;;;;19.59;31.73;101992.66;4987847;28;20691;-78
2022/08/28 10:35:30;;;;;;;;;;;;;;;19.57;31.80;101995.44;4991420;28;20044;-78
2022/08/28 10:38:38;;;;;;;7.40;1.95;;;;;;;19.67;32.43;102001.84;4989571;28;19913;-79
2022/08/28 10:41:27;;;;;;;7.90;1.85;;;;;;;19.43;31.96;102014.75;4978214;28;20133;-78
2022/08/28 10:43:59;;;;;;;5.20;1.55;;;;;;;18.75;33.19;102007.25;4996580;28;20042;-77
2022/08/28 10:46:47;;;;;;;5.43;1.48;;;;;;;19.20;33.17;101994.94;4973619;28;20026;-78
2022/08/28 10:49:26;;;;;;;13.98;1.88;;;;;;;19.08;33.31;102000.97;4974573;28;20041;-78
2022/08/28 10:52:03;;;;;;;8.40;1.65;;;;;;;18.37;33.76;102001.47;4987868;28;20030;-75
2022/08/28 10:54:32;;;;;;;7.63;2.20;;;;;;;18.66;33.44;102000.66;4990873;28;20030;-78
2022/08/28 10:57:07;;;;;;;6.75;1.52;;;;;;;18.76;34.00;102008.94;5004494;28;20224;-77
2022/08/28 10:59:34;;;;;;;10.95;1.85;;;;;;;18.54;34.33;102003.13;4976803;28;20129;-78
2022/08/28 11:02:03;;;;;;;8.00;1.95;;;;;;;19.20;34.16;101997.59;4977771;28;20022;-78
2022/08/28 11:04:29;;;;;;;5.05;1.20;;;;;;;19.26;34.66;101999.03;4980826;28;20026;-74
2022/08/28 11:07:02;;;;;;;5.65;1.58;;;;;;;19.51;33.88;102011.66;4977729;28;20403;-77
2022/08/28 11:09:27;;;;;;;8.20;1.77;;;;;;;19.26;34.25;102005.19;4990969;28;20041;-77
2022/08/28 11:12:00;;;;;;;4.75;1.00;;;;;;;19.08;34.76;102004.47;4971918;28;20419;-77
2022/08/28 11:14:30;;;;;;;3.95;1.00;;;;;;;19.17;34.64;102004.88;5001484;28;20313;-76
2022/08/28 11:17:00;;;;;;;7.57;2.15;;;;;;;18.93;34.07;101999.22;4973395;28;20245;-79
2022/08/28 11:19:52;;;;;;;5.93;1.42;;;;;;;18.67;35.18;102004.16;4997994;28;20287;-78
2022/08/28 11:23:00;;;;;;;5.30;1.65;;;;;;;18.56;35.01;102009.22;4997855;28;20128;-77
2022/08/28 11:25:32;;;;;;;5.72;1.77;;;;;;;18.05;36.00;102002.25;4965919;28;20160;-76
2022/08/28 11:28:17;;;;;;;5.63;2.05;;;;;;;18.28;35.85;102008.09;4982937;28;20053;-78
2022/08/28 11:30:45;;;;;;;7.55;1.60;;;;;;;18.43;35.91;102016.97;4988625;28;20045;-76
2022/08/28 11:33:30;;;;;;;7.75;1.13;;;;;;;17.34;37.98;102020.06;4972584;28;20045;-77
2022/08/28 11:35:55;;;;;;;4.97;1.90;;;;;;;17.86;37.62;102017.38;4969845;28;20034;-78
2022/08/28 11:38:39;;;;;;;4.85;1.30;;;;;;;17.98;37.21;102029.09;4988623;28;20477;-76
2022/08/28 11:41:23;;;;;;;5.70;1.20;;;;;;;18.25;37.07;102021.47;4968437;28;20033;-76
2022/08/28 11:43:51;;;;;;;6.20;1.55;;;;;;;18.73;35.89;102013.56;5004023;28;20038;-77